Back to Top

Language: 

My Weather Underground Personal Weather Station Historical Data with Graphs...

Delerius Weather Station Historical Data
Daily Summary for March 12, 2017 Units:  Metric    English   Both
« Previous Day
Next Day »
Daily Weekly Monthly Yearly Custom
  High: Low: Average:
Temperature: 15.8 °C 6.7 °C 11.1 °C
Dew Point: 10.7 °C 4.7 °C 8.6 °C
Humidity: 94 % 57 % 85 %
Wind Speed: 17.7 km/h 0 km/h 7.9 km/h
Wind Gust: 25.7 km/h - -
Wind:- - West
Pressure: 1021.9 hPa 1010.4 hPa -
Precipitation: 0 mm    
Historical Graphs
 
 
Tabular Data for March 12, 2017
Time Temperature Dew Point Pressure Wind Wind Speed Wind Gust Humidity Rainfall Rate (Hourly) solar Conditions
00:05 11.7 °C 10.6 °C 1012.1 hPa SSW 3.2 km/h 12.9 km/h 93 % 0 mm 0 W/m2
00:15 11.7 °C 10.6 °C 1012.1 hPa SSE 6.4 km/h 8 km/h 93 % 0 mm 0 W/m2
00:20 11.7 °C 10.6 °C 1012.1 hPa SSE 6.4 km/h 6.4 km/h 93 % 0 mm 0 W/m2
00:25 11.7 °C 10.6 °C 1012.1 hPa SSE 8 km/h 11.3 km/h 93 % 0 mm 0 W/m2
00:30 11.6 °C 10.7 °C 1011.7 hPa South 6.4 km/h 6.4 km/h 94 % 0 mm 0 W/m2
00:40 11.6 °C 10.6 °C 1011.7 hPa South 4.8 km/h 4.8 km/h 94 % 0 mm 0 W/m2
00:45 11.6 °C 10.6 °C 1011.7 hPa South 4.8 km/h 4.8 km/h 94 % 0 mm 0 W/m2
00:55 11.6 °C 10.4 °C 1011.7 hPa SSW 4.8 km/h 6.4 km/h 93 % 0 mm 0 W/m2
01:00 11.5 °C 10.6 °C 1011.7 hPa SSW 6.4 km/h 6.4 km/h 94 % 0 mm 0 W/m2
01:05 11.5 °C 10.4 °C 1011.7 hPa South 6.4 km/h 12.9 km/h 93 % 0 mm 0 W/m2
01:15 11.5 °C 10.4 °C 1011.7 hPa SSE 6.4 km/h 11.3 km/h 93 % 0 mm 0 W/m2
01:20 11.5 °C 10.4 °C 1011.7 hPa South 6.4 km/h 6.4 km/h 93 % 0 mm 0 W/m2
01:25 11.5 °C 10.4 °C 1011.7 hPa SE 6.4 km/h 12.9 km/h 93 % 0 mm 0 W/m2
01:30 11.5 °C 10.4 °C 1011.7 hPa SE 4.8 km/h 4.8 km/h 93 % 0 mm 0 W/m2
01:35 11.4 °C 10.3 °C 1011.4 hPa SE 3.2 km/h 12.9 km/h 93 % 0 mm 0 W/m2
01:40 11.4 °C 10.3 °C 1011.4 hPa SE 1.6 km/h 1.6 km/h 93 % 0 mm 0 W/m2
01:50 11.4 °C 10.3 °C 1011.4 hPa South 1.6 km/h 1.6 km/h 93 % 0 mm 0 W/m2
01:55 11.4 °C 10.3 °C 1011.4 hPa Calm   12.9 km/h 93 % 0 mm 0 W/m2
02:00 11.3 °C 10.2 °C 1011.4 hPa Calm   12.9 km/h 93 % 0 mm 0 W/m2
02:05 11.3 °C 10.2 °C 1011.1 hPa South 1.6 km/h 12.9 km/h 93 % 0 mm 0 W/m2
02:10 11.3 °C 10.2 °C 1011.1 hPa South 3.2 km/h 12.9 km/h 93 % 0 mm 0 W/m2
02:20 11.2 °C 10.1 °C 1011.1 hPa South 4.8 km/h 12.9 km/h 93 % 0 mm 0 W/m2
02:30 11.1 °C 10 °C 1011.1 hPa South 6.4 km/h 6.4 km/h 93 % 0 mm 0 W/m2
02:35 11.2 °C 10.1 °C 1011.1 hPa South 6.4 km/h 12.9 km/h 93 % 0 mm 0 W/m2
02:40 11.2 °C 10.1 °C 1010.7 hPa South 4.8 km/h 12.9 km/h 93 % 0 mm 0 W/m2
02:45 11.1 °C 10 °C 1010.7 hPa SSW 6.4 km/h 12.9 km/h 93 % 0 mm 0 W/m2
02:50 11.1 °C 9.9 °C 1010.7 hPa South 4.8 km/h 4.8 km/h 93 % 0 mm 0 W/m2
02:55 11.1 °C 9.9 °C 1010.7 hPa South 4.8 km/h 6.4 km/h 93 % 0 mm 0 W/m2
03:00 11 °C 9.9 °C 1010.7 hPa SSW 6.4 km/h 12.9 km/h 93 % 0 mm 0 W/m2
03:05 11 °C 9.9 °C 1010.7 hPa SSE 6.4 km/h 12.9 km/h 93 % 0 mm 0 W/m2
03:10 11 °C 9.9 °C 1010.7 hPa SSW 8 km/h 12.9 km/h 93 % 0 mm 0 W/m2
03:20 11 °C 9.9 °C 1010.7 hPa South 9.7 km/h 9.7 km/h 93 % 0 mm 0 W/m2
03:30 11.1 °C 9.9 °C 1010.7 hPa South 8 km/h 12.9 km/h 93 % 0 mm 0 W/m2
03:35 11.1 °C 9.9 °C 1010.7 hPa SSW 6.4 km/h 12.9 km/h 93 % 0 mm 0 W/m2
03:40 11.1 °C 9.9 °C 1010.7 hPa SSW 6.4 km/h 12.9 km/h 93 % 0 mm 0 W/m2
03:45 11.1 °C 9.9 °C 1010.7 hPa SSW 6.4 km/h 12.9 km/h 93 % 0 mm 0 W/m2
03:50 11.1 °C 9.9 °C 1010.7 hPa SSW 4.8 km/h 4.8 km/h 93 % 0 mm 0 W/m2
03:55 11.1 °C 9.9 °C 1010.7 hPa SSW 3.2 km/h 12.9 km/h 93 % 0 mm 0 W/m2
04:05 11.1 °C 9.9 °C 1010.7 hPa SSW 1.6 km/h 12.9 km/h 93 % 0 mm 0 W/m2
04:10 11.1 °C 9.9 °C 1010.7 hPa SSW 1.6 km/h 1.6 km/h 93 % 0 mm 0 W/m2
04:15 11.1 °C 9.9 °C 1010.7 hPa SSW 1.6 km/h 3.2 km/h 93 % 0 mm 0 W/m2
04:25 11.1 °C 10 °C 1010.7 hPa West 3.2 km/h 12.9 km/h 93 % 0 mm 0 W/m2
04:30 11.1 °C 10 °C 1010.7 hPa West 4.8 km/h 12.9 km/h 93 % 0 mm 0 W/m2
04:40 11.2 °C 10.1 °C 1010.4 hPa WSW 8 km/h 8 km/h 93 % 0 mm 0 W/m2
04:45 11.1 °C 10 °C 1010.4 hPa WSW 6.4 km/h 12.9 km/h 93 % 0 mm 0 W/m2
04:50 11.1 °C 10 °C 1010.4 hPa WSW 3.2 km/h 3.2 km/h 93 % 0 mm 0 W/m2
04:55 11.1 °C 9.9 °C 1010.4 hPa Calm   12.9 km/h 93 % 0 mm 0 W/m2
05:00 11 °C 9.9 °C 1010.4 hPa Calm   12.9 km/h 93 % 0 mm 0 W/m2
05:10 10.9 °C 9.8 °C 1010.4 hPa Calm   12.9 km/h 93 % 0 mm 0 W/m2
05:15 10.9 °C 9.8 °C 1010.4 hPa Calm   12.9 km/h 93 % 0 mm 0 W/m2
05:20 10.9 °C 9.8 °C 1010.4 hPa Calm   12.9 km/h 93 % 0 mm 0 W/m2
05:25 10.8 °C 9.7 °C 1010.4 hPa Calm   12.9 km/h 93 % 0 mm 0 W/m2
05:30 10.8 °C 9.7 °C 1010.4 hPa Calm   12.9 km/h 93 % 0 mm 0 W/m2
05:35 10.8 °C 9.7 °C 1010.4 hPa Calm   12.9 km/h 93 % 0 mm 0 W/m2
05:45 10.7 °C 9.8 °C 1010.4 hPa Calm   12.9 km/h 94 % 0 mm 0 W/m2
05:50 10.7 °C 9.8 °C 1010.4 hPa Calm   12.9 km/h 94 % 0 mm 0 W/m2
05:55 10.7 °C 9.8 °C 1010.4 hPa WSW 1.6 km/h 12.9 km/h 94 % 0 mm 0 W/m2
06:05 10.6 °C 9.7 °C 1010.4 hPa WSW 1.6 km/h 12.9 km/h 94 % 0 mm 0 W/m2
06:10 10.6 °C 9.7 °C 1010.4 hPa WSW 1.6 km/h 1.6 km/h 94 % 0 mm 0 W/m2
06:20 10.5 °C 9.6 °C 1010.7 hPa Calm   12.9 km/h 94 % 0 mm 0 W/m2
06:25 10.4 °C 9.3 °C 1010.7 hPa Calm   12.9 km/h 93 % 0 mm 0 W/m2
06:30 10.4 °C 9.3 °C 1010.7 hPa Calm   12.9 km/h 93 % 0 mm 0 W/m2
06:35 10.3 °C 9.4 °C 1010.7 hPa Calm   12.9 km/h 94 % 0 mm 0 W/m2
06:40 10.3 °C 9.4 °C 1011.1 hPa Calm   12.9 km/h 94 % 0 mm 0 W/m2
06:45 10.3 °C 9.4 °C 1011.1 hPa Calm   12.9 km/h 94 % 0 mm 0 W/m2
06:55 10.4 °C 9.4 °C 1011.1 hPa Calm   12.9 km/h 94 % 0 mm 0 W/m2
07:05 10.4 °C 9.4 °C 1011.1 hPa Calm   12.9 km/h 94 % 0 mm 11 W/m2
07:10 10.4 °C 9.4 °C 1011.1 hPa Calm   12.9 km/h 94 % 0 mm 7 W/m2
07:15 10.4 °C 9.4 °C 1011.1 hPa WSW 1.6 km/h 12.9 km/h 94 % 0 mm 7 W/m2
07:20 10.4 °C 9.4 °C 1011.4 hPa WSW 3.2 km/h 3.2 km/h 94 % 0 mm 7 W/m2
07:25 10.4 °C 9.4 °C 1011.1 hPa West 1.6 km/h 12.9 km/h 94 % 0 mm 12 W/m2
07:30 10.4 °C 9.4 °C 1011.4 hPa Calm   12.9 km/h 94 % 0 mm 12 W/m2
07:35 10.4 °C 9.4 °C 1011.4 hPa West 1.6 km/h 12.9 km/h 94 % 0 mm 16 W/m2
07:40 10.4 °C 9.4 °C 1011.4 hPa West 1.6 km/h 12.9 km/h 94 % 0 mm 30 W/m2
07:45 10.5 °C 9.6 °C 1011.4 hPa West 3.2 km/h 12.9 km/h 94 % 0 mm 35 W/m2
07:50 10.5 °C 9.6 °C 1011.4 hPa West 4.8 km/h 4.8 km/h 94 % 0 mm 44 W/m2
08:00 10.6 °C 9.7 °C 1011.4 hPa WSW 6.4 km/h 6.4 km/h 94 % 0 mm 54 W/m2
08:10 10.8 °C 9.7 °C 1011.7 hPa WNW 3.2 km/h 12.9 km/h 93 % 0 mm 47 W/m2
08:15 10.8 °C 9.7 °C 1011.7 hPa WSW 4.8 km/h 12.9 km/h 93 % 0 mm 69 W/m2
08:20 10.8 °C 9.7 °C 1011.7 hPa West 6.4 km/h 6.4 km/h 93 % 0 mm 62 W/m2
08:25 10.9 °C 9.8 °C 1011.7 hPa WNW 6.4 km/h 8 km/h 93 % 0 mm 79 W/m2
08:35 11 °C 9.7 °C 1011.7 hPa WNW 1.6 km/h 12.9 km/h 92 % 0 mm 69 W/m2
08:40 11.1 °C 9.8 °C 1011.7 hPa NNW 1.6 km/h 12.9 km/h 92 % 0 mm 65 W/m2
08:45 11.1 °C 9.7 °C 1011.7 hPa NW 3.2 km/h 12.9 km/h 91 % 0 mm 84 W/m2
08:55 11.2 °C 9.8 °C 1011.7 hPa North 6.4 km/h 12.9 km/h 91 % 0 mm 188 W/m2
09:00 11.3 °C 9.9 °C 1011.7 hPa NW 4.8 km/h 12.9 km/h 91 % 0 mm 130 W/m2
09:05 11.4 °C 9.8 °C 1011.7 hPa NW 6.4 km/h 12.9 km/h 90 % 0 mm 142 W/m2
09:10 11.4 °C 9.7 °C 1011.7 hPa NW 6.4 km/h 12.9 km/h 89 % 0 mm 151 W/m2
09:20 11.6 °C 9.4 °C 1011.7 hPa NW 8 km/h 8 km/h 87 % 0 mm 171 W/m2
09:25 11.7 °C 9.6 °C 1011.7 hPa WNW 8 km/h 9.7 km/h 87 % 0 mm 227 W/m2
09:30 11.8 °C 9.7 °C 1012.1 hPa NNW 8 km/h 8 km/h 87 % 0 mm 227 W/m2
09:35 11.9 °C 9.6 °C 1012.1 hPa NW 4.8 km/h 11.3 km/h 86 % 0 mm 202 W/m2
09:45 12 °C 9.6 °C 1011.7 hPa NW 6.4 km/h 12.9 km/h 85 % 0 mm 172 W/m2
09:50 12.1 °C 9.4 °C 1011.7 hPa WNW 8 km/h 12.9 km/h 84 % 0 mm 178 W/m2
09:55 12.1 °C 9.5 °C 1012.1 hPa NW 6.4 km/h 12.9 km/h 84 % 0 mm 206 W/m2
10:00 12.2 °C 9.6 °C 1012.1 hPa West 6.4 km/h 12.9 km/h 84 % 0 mm 199 W/m2
10:10 12.2 °C 9.4 °C 1012.1 hPa WNW 6.4 km/h 12.9 km/h 83 % 0 mm 227 W/m2
10:15 12.3 °C 9.5 °C 1012.4 hPa WNW 6.4 km/h 12.9 km/h 83 % 0 mm 192 W/m2
10:25 12.4 °C 9.4 °C 1012.1 hPa NW 6.4 km/h 12.9 km/h 82 % 0 mm 186 W/m2
10:30 12.5 °C 9.3 °C 1012.1 hPa WNW 4.8 km/h 12.9 km/h 81 % 0 mm 232 W/m2
10:35 12.6 °C 9.4 °C 1012.1 hPa NNW 3.2 km/h 12.9 km/h 81 % 0 mm 308 W/m2
10:40 12.7 °C 9.5 °C 1012.1 hPa NNW 3.2 km/h 12.9 km/h 81 % 0 mm 392 W/m2
10:45 12.8 °C 9.4 °C 1012.1 hPa NW 4.8 km/h 12.9 km/h 80 % 0 mm 299 W/m2
10:55 13.1 °C 9.3 °C 1012.4 hPa NW 3.2 km/h 12.9 km/h 78 % 0 mm 165 W/m2
11:00 13.1 °C 9.6 °C 1012.4 hPa NW 3.2 km/h 12.9 km/h 79 % 0 mm 156 W/m2
11:05 13.1 °C 9.3 °C 1012.4 hPa WNW 3.2 km/h 12.9 km/h 78 % 0 mm 211 W/m2
11:10 13.1 °C 9.1 °C 1012.4 hPa WNW 3.2 km/h 12.9 km/h 77 % 0 mm 227 W/m2
11:15 13.1 °C 9.2 °C 1012.4 hPa WNW 4.8 km/h 12.9 km/h 77 % 0 mm 207 W/m2
11:20 13.1 °C 9.2 °C 1012.4 hPa WNW 6.4 km/h 12.9 km/h 77 % 0 mm 232 W/m2
11:25 13.2 °C 9.2 °C 1012.4 hPa NNW 6.4 km/h 12.9 km/h 77 % 0 mm 241 W/m2
11:30 13.3 °C 9.3 °C 1012.4 hPa NW 4.8 km/h 4.8 km/h 77 % 0 mm 209 W/m2
11:35 13.4 °C 9.3 °C 1012.8 hPa WNW 4.8 km/h 8 km/h 76 % 0 mm 253 W/m2
11:45 13.6 °C 9.1 °C 1012.8 hPa West 4.8 km/h 12.9 km/h 74 % 0 mm 264 W/m2
11:50 13.8 °C 9.4 °C 1012.8 hPa WNW 4.8 km/h 12.9 km/h 75 % 0 mm 768 W/m2
12:00 14 °C 9.2 °C 1012.8 hPa West 8 km/h 8 km/h 73 % 0 mm 315 W/m2
12:05 14.2 °C 9.4 °C 1012.8 hPa WSW 9.7 km/h 11.3 km/h 73 % 0 mm 759 W/m2
12:10 14.5 °C 9.3 °C 1012.8 hPa NW 8 km/h 8 km/h 71 % 0 mm 417 W/m2
12:15 14.8 °C 9.8 °C 1012.8 hPa WNW 8 km/h 9.7 km/h 72 % 0 mm 768 W/m2
12:20 15 °C 9.6 °C 1012.8 hPa WNW 6.4 km/h 12.9 km/h 70 % 0 mm 244 W/m2
12:30 15.1 °C 9.4 °C 1012.8 hPa West 8 km/h 12.9 km/h 69 % 0 mm 258 W/m2
12:35 15.2 °C 9.6 °C 1012.8 hPa WNW 8 km/h 12.9 km/h 69 % 0 mm 731 W/m2
12:40 15.3 °C 9.4 °C 1012.8 hPa WSW 9.7 km/h 17.7 km/h 68 % 0 mm 756 W/m2
12:45 15.3 °C 8.8 °C 1013.1 hPa WNW 12.9 km/h 17.7 km/h 65 % 0 mm 679 W/m2
12:50 15.5 °C 8.7 °C 1012.8 hPa NNW 12.9 km/h 16.1 km/h 64 % 0 mm 652 W/m2
12:55 15.7 °C 9.1 °C 1013.1 hPa West 12.9 km/h 16.1 km/h 65 % 0 mm 652 W/m2
13:00 15.6 °C 8.8 °C 1013.1 hPa NW 14.5 km/h 24.1 km/h 64 % 0 mm 675 W/m2
13:05 15.5 °C 8.5 °C 1013.1 hPa West 14.5 km/h 24.1 km/h 63 % 0 mm 691 W/m2
13:15 15.6 °C 8.3 °C 1013.1 hPa WNW 14.5 km/h 14.5 km/h 62 % 0 mm 587 W/m2
13:20 15.6 °C 8.1 °C 1013.1 hPa West 14.5 km/h 20.9 km/h 61 % 0 mm 559 W/m2
13:25 15.6 °C 7.9 °C 1013.1 hPa WNW 14.5 km/h 20.9 km/h 60 % 0 mm 610 W/m2
13:30 15.6 °C 7.8 °C 1013.1 hPa West 14.5 km/h 16.1 km/h 60 % 0 mm 628 W/m2
13:40 15.8 °C 8.3 °C 1013.1 hPa West 12.9 km/h 16.1 km/h 61 % 0 mm 557 W/m2
13:45 15.7 °C 8 °C 1013.1 hPa West 12.9 km/h 16.1 km/h 60 % 0 mm 517 W/m2
13:55 15.8 °C 7.3 °C 1013.4 hPa WNW 12.9 km/h 14.5 km/h 57 % 0 mm 529 W/m2
14:00 15.8 °C 7.3 °C 1013.4 hPa WSW 12.9 km/h 17.7 km/h 57 % 0 mm 524 W/m2
14:05 15.8 °C 7.5 °C 1013.4 hPa West 14.5 km/h 17.7 km/h 58 % 0 mm 531 W/m2
14:10 15.7 °C 7.2 °C 1013.4 hPa West 12.9 km/h 16.1 km/h 57 % 0 mm 146 W/m2
14:15 15.5 °C 7.5 °C 1013.4 hPa NW 11.3 km/h 17.7 km/h 59 % 0 mm 533 W/m2
14:20 15.6 °C 7.8 °C 1013.4 hPa NW 12.9 km/h 12.9 km/h 60 % 0 mm 527 W/m2
14:25 15.6 °C 8.1 °C 1013.8 hPa WNW 12.9 km/h 16.1 km/h 61 % 0 mm 171 W/m2
14:30 15.3 °C 7.6 °C 1013.8 hPa West 14.5 km/h 17.7 km/h 60 % 0 mm 118 W/m2
14:35 15.1 °C 7.6 °C 1013.8 hPa WNW 14.5 km/h 17.7 km/h 61 % 0 mm 482 W/m2
14:45 15.1 °C 7.3 °C 1013.8 hPa West 14.5 km/h 14.5 km/h 60 % 0 mm 450 W/m2
14:50 15.1 °C 7.3 °C 1013.8 hPa West 16.1 km/h 17.7 km/h 60 % 0 mm 473 W/m2
17:35 11 °C 8.2 °C 1016.1 hPa NW 8 km/h 12.9 km/h 83 % 0 mm 28 W/m2
17:40 10.9 °C 8.2 °C 1016.5 hPa WNW 6.4 km/h 12.9 km/h 83 % 0 mm 23 W/m2
17:45 10.8 °C 8.1 °C 1016.5 hPa NW 8 km/h 12.9 km/h 83 % 0 mm 18 W/m2
17:50 10.8 °C 8 °C 1016.5 hPa West 8 km/h 12.9 km/h 83 % 0 mm 14 W/m2
17:55 10.7 °C 7.9 °C 1016.8 hPa WNW 9.7 km/h 12.9 km/h 83 % 0 mm 11 W/m2
18:00 10.7 °C 8.1 °C 1016.8 hPa WNW 9.7 km/h 9.7 km/h 84 % 0 mm 9 W/m2
18:10 10.6 °C 8 °C 1017.2 hPa NW 11.3 km/h 11.3 km/h 84 % 0 mm 0 W/m2
18:15 10.6 °C 7.9 °C 1017.2 hPa West 11.3 km/h 12.9 km/h 84 % 0 mm 0 W/m2
18:20 10.6 °C 7.9 °C 1017.2 hPa WNW 12.9 km/h 19.3 km/h 84 % 0 mm 0 W/m2
18:30 10.5 °C 7.9 °C 1017.5 hPa NW 14.5 km/h 17.7 km/h 84 % 0 mm 0 W/m2
18:35 10.4 °C 7.8 °C 1017.5 hPa WNW 14.5 km/h 17.7 km/h 84 % 0 mm 0 W/m2
18:45 10.2 °C 7.6 °C 1017.5 hPa WNW 14.5 km/h 14.5 km/h 84 % 0 mm 0 W/m2
18:50 10.1 °C 7.7 °C 1017.8 hPa WNW 14.5 km/h 14.5 km/h 85 % 0 mm 0 W/m2
18:55 9.9 °C 7.7 °C 1017.8 hPa WNW 14.5 km/h 16.1 km/h 86 % 0 mm 0 W/m2
19:00 9.8 °C 7.6 °C 1017.8 hPa WNW 14.5 km/h 14.5 km/h 86 % 0 mm 0 W/m2
19:05 9.7 °C 7.5 °C 1017.8 hPa NW 14.5 km/h 14.5 km/h 86 % 0 mm 0 W/m2
19:15 9.5 °C 7.3 °C 1018.2 hPa NW 12.9 km/h 19.3 km/h 86 % 0 mm 0 W/m2
19:20 9.3 °C 7.1 °C 1018.2 hPa WNW 11.3 km/h 14.5 km/h 86 % 0 mm 0 W/m2
19:25 9.3 °C 7.2 °C 1018.2 hPa WNW 11.3 km/h 14.5 km/h 87 % 0 mm 0 W/m2
19:30 9.2 °C 7.2 °C 1018.5 hPa NW 12.9 km/h 12.9 km/h 87 % 0 mm 0 W/m2
19:35 9.2 °C 7.1 °C 1018.5 hPa NW 11.3 km/h 17.7 km/h 87 % 0 mm 0 W/m2
19:40 9.2 °C 7.1 °C 1018.5 hPa West 12.9 km/h 19.3 km/h 87 % 0 mm 0 W/m2
19:50 9.2 °C 7 °C 1018.5 hPa WNW 14.5 km/h 22.5 km/h 86 % 0 mm 0 W/m2
19:55 9.2 °C 7 °C 1018.5 hPa WNW 16.1 km/h 22.5 km/h 86 % 0 mm 0 W/m2
20:00 9.2 °C 7 °C 1018.8 hPa WNW 16.1 km/h 16.1 km/h 86 % 0 mm 0 W/m2
20:05 9.2 °C 6.9 °C 1018.8 hPa NW 14.5 km/h 16.1 km/h 86 % 0 mm 0 W/m2
20:10 9.1 °C 6.9 °C 1018.8 hPa WNW 14.5 km/h 19.3 km/h 86 % 0 mm 0 W/m2
20:20 9.1 °C 6.8 °C 1019.2 hPa NW 17.7 km/h 17.7 km/h 86 % 0 mm 0 W/m2
20:25 9 °C 6.8 °C 1019.2 hPa WNW 16.1 km/h 17.7 km/h 86 % 0 mm 0 W/m2
20:30 8.9 °C 6.7 °C 1019.5 hPa West 16.1 km/h 16.1 km/h 86 % 0 mm 0 W/m2
20:40 8.8 °C 6.4 °C 1019.5 hPa WNW 12.9 km/h 16.1 km/h 85 % 0 mm 0 W/m2
20:50 8.6 °C 6.2 °C 1019.5 hPa WNW 12.9 km/h 12.9 km/h 85 % 0 mm 0 W/m2
20:55 8.5 °C 6.1 °C 1019.9 hPa NW 12.9 km/h 20.9 km/h 85 % 0 mm 0 W/m2
21:00 8.4 °C 6.1 °C 1019.9 hPa NW 16.1 km/h 16.1 km/h 85 % 0 mm 0 W/m2
21:05 8.3 °C 5.9 °C 1019.9 hPa WNW 16.1 km/h 25.7 km/h 85 % 0 mm 0 W/m2
21:10 8.3 °C 5.9 °C 1019.9 hPa WNW 16.1 km/h 16.1 km/h 85 % 0 mm 0 W/m2
21:15 8.2 °C 5.8 °C 1020.2 hPa NW 16.1 km/h 16.1 km/h 85 % 0 mm 0 W/m2
21:25 8.1 °C 5.7 °C 1020.2 hPa WNW 14.5 km/h 16.1 km/h 85 % 0 mm 0 W/m2
21:35 8.1 °C 5.7 °C 1020.2 hPa WNW 16.1 km/h 25.7 km/h 85 % 0 mm 0 W/m2
21:40 8 °C 5.6 °C 1020.2 hPa WNW 14.5 km/h 14.5 km/h 85 % 0 mm 0 W/m2
21:45 7.9 °C 5.7 °C 1020.5 hPa WNW 14.5 km/h 25.7 km/h 86 % 0 mm 0 W/m2
21:50 7.9 °C 5.7 °C 1020.5 hPa WNW 12.9 km/h 25.7 km/h 86 % 0 mm 0 W/m2
21:55 7.8 °C 5.6 °C 1020.5 hPa NW 12.9 km/h 25.7 km/h 86 % 0 mm 0 W/m2
22:05 7.7 °C 5.5 °C 1020.5 hPa WNW 12.9 km/h 25.7 km/h 86 % 0 mm 0 W/m2
22:10 7.7 °C 5.5 °C 1020.5 hPa WNW 14.5 km/h 14.5 km/h 86 % 0 mm 0 W/m2
22:15 7.7 °C 5.5 °C 1020.9 hPa NW 17.7 km/h 17.7 km/h 86 % 0 mm 0 W/m2
22:20 7.7 °C 5.5 °C 1020.9 hPa WNW 16.1 km/h 16.1 km/h 86 % 0 mm 0 W/m2
22:25 7.7 °C 5.5 °C 1020.9 hPa WNW 12.9 km/h 25.7 km/h 86 % 0 mm 0 W/m2
22:30 7.6 °C 5.4 °C 1020.9 hPa NW 12.9 km/h 12.9 km/h 86 % 0 mm 0 W/m2
22:40 7.4 °C 5.3 °C 1020.9 hPa WNW 12.9 km/h 25.7 km/h 86 % 0 mm 0 W/m2
22:45 7.4 °C 5.4 °C 1021.2 hPa WNW 12.9 km/h 25.7 km/h 87 % 0 mm 0 W/m2
22:55 7.3 °C 5.3 °C 1021.2 hPa West 11.3 km/h 25.7 km/h 87 % 0 mm 0 W/m2
23:00 7.2 °C 5.2 °C 1021.6 hPa NW 9.7 km/h 9.7 km/h 87 % 0 mm 0 W/m2
23:05 7.2 °C 5.2 °C 1021.6 hPa WNW 8 km/h 25.7 km/h 87 % 0 mm 0 W/m2
23:15 7.1 °C 5.2 °C 1021.6 hPa West 8 km/h 25.7 km/h 88 % 0 mm 0 W/m2
23:20 7.1 °C 5.2 °C 1021.6 hPa WNW 9.7 km/h 25.7 km/h 88 % 0 mm 0 W/m2
23:25 7.1 °C 5.2 °C 1021.6 hPa WNW 11.3 km/h 25.7 km/h 88 % 0 mm 0 W/m2
23:30 7 °C 5 °C 1021.6 hPa West 11.3 km/h 25.7 km/h 87 % 0 mm 0 W/m2
23:35 6.9 °C 4.9 °C 1021.9 hPa NW 11.3 km/h 25.7 km/h 87 % 0 mm 0 W/m2
23:40 6.9 °C 4.9 °C 1021.6 hPa West 12.9 km/h 25.7 km/h 87 % 0 mm 0 W/m2
23:45 6.9 °C 4.9 °C 1021.9 hPa NW 11.3 km/h 25.7 km/h 87 % 0 mm 0 W/m2
23:50 6.8 °C 4.8 °C 1021.9 hPa WNW 9.7 km/h 9.7 km/h 87 % 0 mm 0 W/m2
23:55 6.7 °C 4.7 °C 1021.9 hPa WNW 8 km/h 25.7 km/h 87 % 0 mm 0 W/m2
Delerius-Weather
Compliments of Weather Underground - 1.75 mb

Data updates at regular intervals.